sensor_id;sensor_type;location;lat;lon;timestamp;pressure;altitude;pressure_sealevel;temperature;humidity
81379;BME280;70830;42.290;-71.354;2023-07-29T00:01:02;66207.00;;;31.71;48.27
81379;BME280;70830;42.290;-71.354;2023-07-29T00:03:29;66197.78;;;31.62;48.41
81379;BME280;70830;42.290;-71.354;2023-07-29T00:05:57;66188.66;;;31.54;48.56
81379;BME280;70830;42.290;-71.354;2023-07-29T00:08:23;66179.56;;;31.45;49.15
81379;BME280;70830;42.290;-71.354;2023-07-29T00:10:49;66170.72;;;31.37;49.07
81379;BME280;70830;42.290;-71.354;2023-07-29T00:13:21;66161.59;;;31.29;49.29
81379;BME280;70830;42.290;-71.354;2023-07-29T00:15:48;66152.44;;;31.21;49.52
81379;BME280;70830;42.290;-71.354;2023-07-29T00:18:14;66143.50;;;31.13;50.07
81379;BME280;70830;42.290;-71.354;2023-07-29T00:20:40;66134.28;;;31.04;50.39
81379;BME280;70830;42.290;-71.354;2023-07-29T00:23:06;66124.72;;;30.96;50.74
81379;BME280;70830;42.290;-71.354;2023-07-29T00:25:32;66114.88;;;30.87;50.37
81379;BME280;70830;42.290;-71.354;2023-07-29T00:27:58;66104.78;;;30.78;51.00
81379;BME280;70830;42.290;-71.354;2023-07-29T00:30:24;66094.81;;;30.69;51.34
81379;BME280;70830;42.290;-71.354;2023-07-29T00:32:52;66084.25;;;30.59;51.28
81379;BME280;70830;42.290;-71.354;2023-07-29T00:35:18;66074.59;;;30.51;51.62
81379;BME280;70830;42.290;-71.354;2023-07-29T00:37:44;66064.94;;;30.42;51.82
81379;BME280;70830;42.290;-71.354;2023-07-29T00:40:15;66055.91;;;30.33;52.15
81379;BME280;70830;42.290;-71.354;2023-07-29T00:42:42;66046.47;;;30.25;52.40
81379;BME280;70830;42.290;-71.354;2023-07-29T00:45:09;66037.56;;;30.16;52.56
81379;BME280;70830;42.290;-71.354;2023-07-29T00:47:36;66028.41;;;30.08;53.00
81379;BME280;70830;42.290;-71.354;2023-07-29T00:50:02;66020.03;;;30.00;52.83
81379;BME280;70830;42.290;-71.354;2023-07-29T00:52:29;66011.78;;;29.93;53.25
81379;BME280;70830;42.290;-71.354;2023-07-29T00:54:55;66004.25;;;29.86;53.36
81379;BME280;70830;42.290;-71.354;2023-07-29T00:57:21;65996.56;;;29.79;53.13
81379;BME280;70830;42.290;-71.354;2023-07-29T00:59:51;65989.47;;;29.72;53.13
81379;BME280;70830;42.290;-71.354;2023-07-29T01:02:17;65982.06;;;29.65;53.17
81379;BME280;70830;42.290;-71.354;2023-07-29T01:04:43;65974.94;;;29.59;53.40
81379;BME280;70830;42.290;-71.354;2023-07-29T01:18:05;65939.69;;;29.26;54.81
81379;BME280;70830;42.290;-71.354;2023-07-29T01:20:40;65933.09;;;29.20;54.69
81379;BME280;70830;42.290;-71.354;2023-07-29T01:23:07;65926.34;;;29.14;55.28
81379;BME280;70830;42.290;-71.354;2023-07-29T01:25:33;65919.91;;;29.09;55.52
81379;BME280;70830;42.290;-71.354;2023-07-29T01:28:00;65913.50;;;29.02;55.76
81379;BME280;70830;42.290;-71.354;2023-07-29T01:30:33;65907.56;;;28.97;55.53
81379;BME280;70830;42.290;-71.354;2023-07-29T01:36:28;65894.66;;;28.85;56.21
81379;BME280;70830;42.290;-71.354;2023-07-29T01:38:56;65888.53;;;28.79;56.40
81379;BME280;70830;42.290;-71.354;2023-07-29T01:41:24;65882.06;;;28.74;56.56
81379;BME280;70830;42.290;-71.354;2023-07-29T01:43:51;65876.44;;;28.68;56.90
81379;BME280;70830;42.290;-71.354;2023-07-29T01:46:18;65870.75;;;28.62;57.00
81379;BME280;70830;42.290;-71.354;2023-07-29T01:48:44;65864.72;;;28.57;57.57
81379;BME280;70830;42.290;-71.354;2023-07-29T01:51:12;65859.00;;;28.52;57.14
81379;BME280;70830;42.290;-71.354;2023-07-29T01:53:38;65853.28;;;28.46;57.20
81379;BME280;70830;42.290;-71.354;2023-07-29T01:56:04;65847.56;;;28.41;57.46
81379;BME280;70830;42.290;-71.354;2023-07-29T01:58:30;65842.47;;;28.36;58.01
81379;BME280;70830;42.290;-71.354;2023-07-29T02:00:56;65836.88;;;28.31;58.33
81379;BME280;70830;42.290;-71.354;2023-07-29T02:03:22;65832.00;;;28.26;58.53
81379;BME280;70830;42.290;-71.354;2023-07-29T02:05:48;65826.53;;;28.21;58.54
81379;BME280;70830;42.290;-71.354;2023-07-29T02:08:16;65820.94;;;28.16;58.85
81379;BME280;70830;42.290;-71.354;2023-07-29T02:10:42;65815.31;;;28.11;59.34
81379;BME280;70830;42.290;-71.354;2023-07-29T02:13:18;100706.69;;;27.32;59.35
81379;BME280;70830;42.290;-71.354;2023-07-29T02:15:44;100704.47;;;27.28;60.03
81379;BME280;70830;42.290;-71.354;2023-07-29T02:18:11;100708.88;;;27.21;59.92
81379;BME280;70830;42.290;-71.354;2023-07-29T02:20:37;100709.06;;;27.19;60.15
81379;BME280;70830;42.290;-71.354;2023-07-29T02:23:03;100717.16;;;27.19;60.63
81379;BME280;70830;42.290;-71.354;2023-07-29T02:25:29;100712.75;;;27.18;60.78
81379;BME280;70830;42.290;-71.354;2023-07-29T02:27:58;100715.47;;;27.18;61.07
81379;BME280;70830;42.290;-71.354;2023-07-29T02:30:24;100709.38;;;27.16;60.54
81379;BME280;70830;42.290;-71.354;2023-07-29T02:32:50;100708.69;;;27.14;61.01
81379;BME280;70830;42.290;-71.354;2023-07-29T02:35:17;100712.75;;;27.10;61.52
81379;BME280;70830;42.290;-71.354;2023-07-29T02:37:42;100719.34;;;27.08;61.23
81379;BME280;70830;42.290;-71.354;2023-07-29T02:40:10;100710.06;;;27.02;61.56
81379;BME280;70830;42.290;-71.354;2023-07-29T02:42:36;100715.97;;;26.98;61.49
81379;BME280;70830;42.290;-71.354;2023-07-29T02:45:03;100713.78;;;26.93;61.84
81379;BME280;70830;42.290;-71.354;2023-07-29T02:47:29;100706.28;;;26.87;62.62
81379;BME280;70830;42.290;-71.354;2023-07-29T02:49:55;100700.72;;;26.80;62.64
81379;BME280;70830;42.290;-71.354;2023-07-29T02:52:21;100709.50;;;26.74;63.18
81379;BME280;70830;42.290;-71.354;2023-07-29T02:54:47;100704.38;;;26.71;62.99
81379;BME280;70830;42.290;-71.354;2023-07-29T02:57:14;100709.47;;;26.66;63.26
81379;BME280;70830;42.290;-71.354;2023-07-29T02:59:39;100704.69;;;26.60;63.84
81379;BME280;70830;42.290;-71.354;2023-07-29T03:02:05;100701.47;;;26.57;64.24
81379;BME280;70830;42.290;-71.354;2023-07-29T03:04:33;100721.59;;;26.54;64.26
81379;BME280;70830;42.290;-71.354;2023-07-29T03:06:59;100729.19;;;26.51;64.81
81379;BME280;70830;42.290;-71.354;2023-07-29T03:09:26;100725.94;;;26.47;64.77
81379;BME280;70830;42.290;-71.354;2023-07-29T03:11:51;100726.63;;;26.41;65.90
81379;BME280;70830;42.290;-71.354;2023-07-29T03:14:18;100727.47;;;26.42;65.57
81379;BME280;70830;42.290;-71.354;2023-07-29T03:16:44;100734.56;;;26.43;65.64
81379;BME280;70830;42.290;-71.354;2023-07-29T03:19:10;100722.19;;;26.40;66.03
81379;BME280;70830;42.290;-71.354;2023-07-29T03:21:36;100736.94;;;26.38;66.55
81379;BME280;70830;42.290;-71.354;2023-07-29T03:24:04;100742.47;;;26.36;67.14
81379;BME280;70830;42.290;-71.354;2023-07-29T03:26:30;100748.06;;;26.35;67.44
81379;BME280;70830;42.290;-71.354;2023-07-29T03:28:56;100754.47;;;26.34;66.96
81379;BME280;70830;42.290;-71.354;2023-07-29T03:31:23;100747.50;;;26.31;67.63
81379;BME280;70830;42.290;-71.354;2023-07-29T03:33:49;100746.53;;;26.32;67.46
81379;BME280;70830;42.290;-71.354;2023-07-29T03:36:15;100757.16;;;26.34;67.39
81379;BME280;70830;42.290;-71.354;2023-07-29T03:38:41;100752.44;;;26.36;67.96
81379;BME280;70830;42.290;-71.354;2023-07-29T03:41:08;100748.75;;;26.37;67.71
81379;BME280;70830;42.290;-71.354;2023-07-29T03:43:34;100753.28;;;26.36;67.95
81379;BME280;70830;42.290;-71.354;2023-07-29T03:46:00;100745.19;;;26.36;68.17
81379;BME280;70830;42.290;-71.354;2023-07-29T03:48:26;100749.91;;;26.34;68.13
81379;BME280;70830;42.290;-71.354;2023-07-29T03:50:52;100748.38;;;26.32;67.87
81379;BME280;70830;42.290;-71.354;2023-07-29T03:53:18;100750.38;;;26.30;68.13
81379;BME280;70830;42.290;-71.354;2023-07-29T03:55:45;100754.13;;;26.29;68.64
81379;BME280;70830;42.290;-71.354;2023-07-29T03:58:12;100742.09;;;26.23;68.35
81379;BME280;70830;42.290;-71.354;2023-07-29T04:00:38;100737.69;;;26.22;68.50
81379;BME280;70830;42.290;-71.354;2023-07-29T04:03:04;100739.38;;;26.23;68.81
81379;BME280;70830;42.290;-71.354;2023-07-29T04:05:30;100736.84;;;26.22;68.97
81379;BME280;70830;42.290;-71.354;2023-07-29T04:07:57;100735.00;;;26.22;68.46
81379;BME280;70830;42.290;-71.354;2023-07-29T04:10:22;100732.44;;;26.21;69.27
81379;BME280;70830;42.290;-71.354;2023-07-29T04:12:48;100736.16;;;26.20;68.98
81379;BME280;70830;42.290;-71.354;2023-07-29T04:15:14;100734.81;;;26.15;69.07
81379;BME280;70830;42.290;-71.354;2023-07-29T04:17:40;100734.81;;;26.15;69.54
81379;BME280;70830;42.290;-71.354;2023-07-29T04:20:08;100734.94;;;26.14;69.53
81379;BME280;70830;42.290;-71.354;2023-07-29T04:22:34;100736.09;;;26.11;69.34
81379;BME280;70830;42.290;-71.354;2023-07-29T04:25:00;100731.16;;;26.07;69.71
81379;BME280;70830;42.290;-71.354;2023-07-29T04:27:26;100725.91;;;26.05;70.19
81379;BME280;70830;42.290;-71.354;2023-07-29T04:29:52;100711.53;;;26.05;69.93
81379;BME280;70830;42.290;-71.354;2023-07-29T04:32:18;100722.03;;;26.08;69.60
81379;BME280;70830;42.290;-71.354;2023-07-29T04:34:43;100721.50;;;26.04;70.06
81379;BME280;70830;42.290;-71.354;2023-07-29T04:37:09;100717.13;;;26.03;70.10
81379;BME280;70830;42.290;-71.354;2023-07-29T04:39:35;100717.13;;;26.03;69.72
81379;BME280;70830;42.290;-71.354;2023-07-29T04:42:01;100714.91;;;25.99;70.08
81379;BME280;70830;42.290;-71.354;2023-07-29T04:44:27;100713.19;;;25.98;69.70
81379;BME280;70830;42.290;-71.354;2023-07-29T04:46:53;100714.53;;;25.94;70.27
81379;BME280;70830;42.290;-71.354;2023-07-29T04:49:19;100713.00;;;25.91;69.89
81379;BME280;70830;42.290;-71.354;2023-07-29T04:51:45;100712.31;;;25.89;69.95
81379;BME280;70830;42.290;-71.354;2023-07-29T04:54:11;100707.06;;;25.88;70.52
81379;BME280;70830;42.290;-71.354;2023-07-29T04:56:36;100710.78;;;25.87;70.46
81379;BME280;70830;42.290;-71.354;2023-07-29T04:59:02;100696.75;;;25.83;70.44
81379;BME280;70830;42.290;-71.354;2023-07-29T05:01:28;100697.22;;;25.79;70.60
81379;BME280;70830;42.290;-71.354;2023-07-29T05:03:55;100691.13;;;25.77;70.94
81379;BME280;70830;42.290;-71.354;2023-07-29T05:06:21;100679.09;;;25.71;70.98
81379;BME280;70830;42.290;-71.354;2023-07-29T05:08:47;100671.00;;;25.71;70.99
81379;BME280;70830;42.290;-71.354;2023-07-29T05:11:13;100657.84;;;25.68;70.71
81379;BME280;70830;42.290;-71.354;2023-07-29T05:13:39;100650.88;;;25.66;70.95
81379;BME280;70830;42.290;-71.354;2023-07-29T05:16:05;100654.75;;;25.63;71.23
81379;BME280;70830;42.290;-71.354;2023-07-29T05:18:31;100646.28;;;25.58;71.50
81379;BME280;70830;42.290;-71.354;2023-07-29T05:20:56;100642.22;;;25.54;71.63
81379;BME280;70830;42.290;-71.354;2023-07-29T05:23:22;100640.66;;;25.52;71.34
81379;BME280;70830;42.290;-71.354;2023-07-29T05:25:48;100636.28;;;25.51;71.58
81379;BME280;70830;42.290;-71.354;2023-07-29T05:28:14;100629.34;;;25.48;72.09
81379;BME280;70830;42.290;-71.354;2023-07-29T05:30:40;100632.53;;;25.43;71.70
81379;BME280;70830;42.290;-71.354;2023-07-29T05:33:06;100620.34;;;25.39;71.90
81379;BME280;70830;42.290;-71.354;2023-07-29T05:35:35;100625.88;;;25.38;72.23
81379;BME280;70830;42.290;-71.354;2023-07-29T05:38:01;100630.91;;;25.33;71.89
81379;BME280;70830;42.290;-71.354;2023-07-29T05:40:28;100638.34;;;25.31;72.57
81379;BME280;70830;42.290;-71.354;2023-07-29T05:42:54;100637.94;;;25.26;72.84
81379;BME280;70830;42.290;-71.354;2023-07-29T05:45:20;100638.13;;;25.24;72.97
81379;BME280;70830;42.290;-71.354;2023-07-29T05:47:46;100637.25;;;25.24;73.02
81379;BME280;70830;42.290;-71.354;2023-07-29T05:50:12;100624.06;;;25.21;72.96
81379;BME280;70830;42.290;-71.354;2023-07-29T05:52:38;100618.97;;;25.18;72.88
81379;BME280;70830;42.290;-71.354;2023-07-29T05:55:04;100608.53;;;25.15;73.18
81379;BME280;70830;42.290;-71.354;2023-07-29T05:57:30;100601.59;;;25.12;73.22
81379;BME280;70830;42.290;-71.354;2023-07-29T05:59:56;100605.28;;;25.11;73.01
81379;BME280;70830;42.290;-71.354;2023-07-29T06:02:22;100603.75;;;25.09;73.60
81379;BME280;70830;42.290;-71.354;2023-07-29T06:04:48;100589.72;;;25.05;73.35
81379;BME280;70830;42.290;-71.354;2023-07-29T06:07:14;100589.88;;;25.04;73.41
81379;BME280;70830;42.290;-71.354;2023-07-29T06:09:40;100583.81;;;25.02;73.26
81379;BME280;70830;42.290;-71.354;2023-07-29T06:12:06;100573.16;;;25.00;73.40
81379;BME280;70830;42.290;-71.354;2023-07-29T06:14:33;100569.94;;;24.97;73.61
81379;BME280;70830;42.290;-71.354;2023-07-29T06:16:58;100565.00;;;24.92;73.60
81379;BME280;70830;42.290;-71.354;2023-07-29T06:19:24;100565.31;;;24.89;73.97
81379;BME280;70830;42.290;-71.354;2023-07-29T06:21:50;100562.78;;;24.88;73.64
81379;BME280;70830;42.290;-71.354;2023-07-29T06:24:16;100555.00;;;24.85;73.93
81379;BME280;70830;42.290;-71.354;2023-07-29T06:26:42;100552.47;;;24.83;73.95
81379;BME280;70830;42.290;-71.354;2023-07-29T06:29:08;100547.53;;;24.79;73.88
81379;BME280;70830;42.290;-71.354;2023-07-29T06:31:34;100548.69;;;24.76;74.35
81379;BME280;70830;42.290;-71.354;2023-07-29T06:34:00;100542.91;;;24.71;74.42
81379;BME280;70830;42.290;-71.354;2023-07-29T06:36:25;100541.50;;;24.67;74.42
81379;BME280;70830;42.290;-71.354;2023-07-29T06:38:51;100552.47;;;24.65;74.75
81379;BME280;70830;42.290;-71.354;2023-07-29T06:41:17;100551.78;;;24.63;74.34
81379;BME280;70830;42.290;-71.354;2023-07-29T06:43:43;100549.38;;;24.60;75.51
81379;BME280;70830;42.290;-71.354;2023-07-29T06:46:09;100546.16;;;24.57;74.47
81379;BME280;70830;42.290;-71.354;2023-07-29T06:48:35;100545.47;;;24.55;75.09
81379;BME280;70830;42.290;-71.354;2023-07-29T06:51:01;100545.59;;;24.53;75.38
81379;BME280;70830;42.290;-71.354;2023-07-29T06:53:28;100535.00;;;24.52;74.68
81379;BME280;70830;42.290;-71.354;2023-07-29T06:55:53;100530.75;;;24.49;75.14
81379;BME280;70830;42.290;-71.354;2023-07-29T06:58:21;100515.91;;;24.45;75.31
81379;BME280;70830;42.290;-71.354;2023-07-29T07:00:47;100517.06;;;24.43;75.47
81379;BME280;70830;42.290;-71.354;2023-07-29T07:03:13;100518.19;;;24.40;75.65
81379;BME280;70830;42.290;-71.354;2023-07-29T07:05:38;100504.38;;;24.35;75.46
81379;BME280;70830;42.290;-71.354;2023-07-29T07:08:04;100494.88;;;24.31;75.63
81379;BME280;70830;42.290;-71.354;2023-07-29T07:10:30;100492.50;;;24.28;75.67
81379;BME280;70830;42.290;-71.354;2023-07-29T07:12:57;100504.44;;;24.26;76.26
81379;BME280;70830;42.290;-71.354;2023-07-29T07:15:23;100495.66;;;24.24;76.32
81379;BME280;70830;42.290;-71.354;2023-07-29T07:17:49;100489.72;;;24.20;76.45
81379;BME280;70830;42.290;-71.354;2023-07-29T07:20:15;100480.94;;;24.18;76.31
81379;BME280;70830;42.290;-71.354;2023-07-29T07:22:40;100474.00;;;24.16;76.29
81379;BME280;70830;42.290;-71.354;2023-07-29T07:25:07;100476.03;;;24.14;76.45
81379;BME280;70830;42.290;-71.354;2023-07-29T07:27:33;100478.19;;;24.10;76.56
81379;BME280;70830;42.290;-71.354;2023-07-29T07:29:59;100484.56;;;24.09;76.90
81379;BME280;70830;42.290;-71.354;2023-07-29T07:32:25;100478.50;;;24.07;76.83
81379;BME280;70830;42.290;-71.354;2023-07-29T07:34:51;100476.22;;;24.02;77.00
81379;BME280;70830;42.290;-71.354;2023-07-29T07:37:17;100470.31;;;23.99;76.87
81379;BME280;70830;42.290;-71.354;2023-07-29T07:39:44;100465.91;;;23.98;77.34
81379;BME280;70830;42.290;-71.354;2023-07-29T07:42:10;100462.69;;;23.94;77.53
81379;BME280;70830;42.290;-71.354;2023-07-29T07:44:36;100461.16;;;23.92;77.60
81379;BME280;70830;42.290;-71.354;2023-07-29T07:47:02;100469.91;;;23.94;76.88
81379;BME280;70830;42.290;-71.354;2023-07-29T07:49:28;100472.59;;;23.94;77.29
81379;BME280;70830;42.290;-71.354;2023-07-29T07:51:54;100475.16;;;23.95;77.48
81379;BME280;70830;42.290;-71.354;2023-07-29T07:54:20;100475.16;;;23.95;77.63
81379;BME280;70830;42.290;-71.354;2023-07-29T07:56:46;100460.16;;;23.93;77.37
81379;BME280;70830;42.290;-71.354;2023-07-29T07:59:12;100463.53;;;23.95;77.68
81379;BME280;70830;42.290;-71.354;2023-07-29T08:01:38;100468.94;;;23.95;77.12
81379;BME280;70830;42.290;-71.354;2023-07-29T08:04:05;100475.84;;;23.97;77.66
81379;BME280;70830;42.290;-71.354;2023-07-29T08:06:31;100470.59;;;23.96;77.87
81379;BME280;70830;42.290;-71.354;2023-07-29T08:08:58;100468.75;;;23.96;77.68
81379;BME280;70830;42.290;-71.354;2023-07-29T08:11:24;100472.31;;;23.97;77.33
81379;BME280;70830;42.290;-71.354;2023-07-29T08:13:50;100478.69;;;23.96;77.56
81379;BME280;70830;42.290;-71.354;2023-07-29T08:16:16;100484.25;;;23.94;77.35
81379;BME280;70830;42.290;-71.354;2023-07-29T08:18:42;100484.25;;;23.94;77.45
81379;BME280;70830;42.290;-71.354;2023-07-29T08:21:09;100480.84;;;23.92;77.62
81379;BME280;70830;42.290;-71.354;2023-07-29T08:23:36;100477.59;;;23.89;77.84
81379;BME280;70830;42.290;-71.354;2023-07-29T08:26:03;100482.69;;;23.92;77.65
81379;BME280;70830;42.290;-71.354;2023-07-29T08:28:38;100481.00;;;23.91;78.00
81379;BME280;70830;42.290;-71.354;2023-07-29T08:31:04;100485.38;;;23.92;77.57
81379;BME280;70830;42.290;-71.354;2023-07-29T08:33:31;100473.63;;;23.93;78.14
81379;BME280;70830;42.290;-71.354;2023-07-29T08:35:59;100478.16;;;23.92;78.06
81379;BME280;70830;42.290;-71.354;2023-07-29T08:38:25;100471.38;;;23.88;77.92
81379;BME280;70830;42.290;-71.354;2023-07-29T08:41:17;100494.16;;;23.94;77.71
81379;BME280;70830;42.290;-71.354;2023-07-29T08:46:42;100493.91;;;23.87;77.96
81379;BME280;70830;42.290;-71.354;2023-07-29T08:49:08;100496.63;;;23.87;78.03
81379;BME280;70830;42.290;-71.354;2023-07-29T08:51:35;100499.16;;;23.89;78.02
81379;BME280;70830;42.290;-71.354;2023-07-29T08:54:01;100499.88;;;23.91;78.03
81379;BME280;70830;42.290;-71.354;2023-07-29T08:56:27;100503.25;;;23.93;77.99
81379;BME280;70830;42.290;-71.354;2023-07-29T08:58:57;100496.16;;;23.92;77.64
81379;BME280;70830;42.290;-71.354;2023-07-29T09:01:23;100508.63;;;23.93;77.89
81379;BME280;70830;42.290;-71.354;2023-07-29T09:03:49;100503.25;;;23.93;77.67
81379;BME280;70830;42.290;-71.354;2023-07-29T09:06:16;100508.47;;;23.94;77.47
81379;BME280;70830;42.290;-71.354;2023-07-29T09:08:43;100510.03;;;23.97;77.90
81379;BME280;70830;42.290;-71.354;2023-07-29T09:11:09;100493.31;;;23.93;77.89
81379;BME280;70830;42.290;-71.354;2023-07-29T09:13:35;100499.53;;;23.94;77.98
81379;BME280;70830;42.290;-71.354;2023-07-29T09:16:01;100491.47;;;23.94;77.66
81379;BME280;70830;42.290;-71.354;2023-07-29T09:18:27;100495.16;;;23.93;78.02
81379;BME280;70830;42.290;-71.354;2023-07-29T09:20:54;100492.47;;;23.93;78.06
81379;BME280;70830;42.290;-71.354;2023-07-29T09:23:20;100485.38;;;23.92;77.65
81379;BME280;70830;42.290;-71.354;2023-07-29T09:25:46;100490.47;;;23.95;78.11
81379;BME280;70830;42.290;-71.354;2023-07-29T09:28:14;100488.47;;;23.97;77.70
81379;BME280;70830;42.290;-71.354;2023-07-29T09:30:43;100481.09;;;23.99;77.91
81379;BME280;70830;42.290;-71.354;2023-07-29T09:33:10;100472.84;;;24.00;77.67
81379;BME280;70830;42.290;-71.354;2023-07-29T09:35:37;100471.00;;;24.01;77.17
81379;BME280;70830;42.290;-71.354;2023-07-29T09:38:07;100463.78;;;24.01;77.69
81379;BME280;70830;42.290;-71.354;2023-07-29T09:40:40;100456.84;;;23.99;77.42
81379;BME280;70830;42.290;-71.354;2023-07-29T09:43:07;100458.38;;;24.01;77.75
81379;BME280;70830;42.290;-71.354;2023-07-29T09:45:35;100456.69;;;24.00;77.92
81379;BME280;70830;42.290;-71.354;2023-07-29T09:48:02;100455.81;;;24.00;77.59
81379;BME280;70830;42.290;-71.354;2023-07-29T09:50:28;100454.16;;;23.99;77.46
81379;BME280;70830;42.290;-71.354;2023-07-29T09:52:56;100463.78;;;24.01;77.66
81379;BME280;70830;42.290;-71.354;2023-07-29T09:55:24;100479.09;;;24.01;77.63
81379;BME280;70830;42.290;-71.354;2023-07-29T09:57:57;100481.59;;;24.02;77.21
81379;BME280;70830;42.290;-71.354;2023-07-29T10:00:28;100484.16;;;24.04;77.60
81379;BME280;70830;42.290;-71.354;2023-07-29T10:02:54;100480.78;;;24.02;77.67
81379;BME280;70830;42.290;-71.354;2023-07-29T10:05:22;100481.34;;;24.06;77.55
81379;BME280;70830;42.290;-71.354;2023-07-29T10:07:49;100482.19;;;24.06;77.60
81379;BME280;70830;42.290;-71.354;2023-07-29T10:10:16;100489.25;;;24.07;77.30
81379;BME280;70830;42.290;-71.354;2023-07-29T10:12:42;100497.34;;;24.07;77.28
81379;BME280;70830;42.290;-71.354;2023-07-29T10:15:09;100499.75;;;24.10;77.52
81379;BME280;70830;42.290;-71.354;2023-07-29T10:17:37;100485.41;;;24.10;77.00
81379;BME280;70830;42.290;-71.354;2023-07-29T10:20:04;100482.94;;;24.16;76.99
81379;BME280;70830;42.290;-71.354;2023-07-29T10:22:40;100507.75;;;24.20;77.07
81379;BME280;70830;42.290;-71.354;2023-07-29T10:25:18;100517.06;;;24.25;76.59
81379;BME280;70830;42.290;-71.354;2023-07-29T10:27:49;100513.91;;;24.30;76.90
81379;BME280;70830;42.290;-71.354;2023-07-29T10:30:16;100511.75;;;24.33;76.78
81379;BME280;70830;42.290;-71.354;2023-07-29T10:32:44;100504.19;;;24.37;76.52
81379;BME280;70830;42.290;-71.354;2023-07-29T10:35:14;100509.44;;;24.38;76.35
81379;BME280;70830;42.290;-71.354;2023-07-29T10:37:41;100523.28;;;24.43;76.30
81379;BME280;70830;42.290;-71.354;2023-07-29T10:40:10;100534.31;;;24.50;76.00
81379;BME280;70830;42.290;-71.354;2023-07-29T10:42:59;100531.34;;;24.61;76.13
81379;BME280;70830;42.290;-71.354;2023-07-29T10:45:40;100519.63;;;24.70;75.82
81379;BME280;70830;42.290;-71.354;2023-07-29T10:51:24;100500.22;;;24.84;75.47
81379;BME280;70830;42.290;-71.354;2023-07-29T10:54:03;100492.84;;;24.94;74.99
81379;BME280;70830;42.290;-71.354;2023-07-29T10:56:33;100488.91;;;25.06;74.26
81379;BME280;70830;42.290;-71.354;2023-07-29T11:01:56;100496.47;;;25.36;73.78
81379;BME280;70830;42.290;-71.354;2023-07-29T11:04:26;100495.41;;;25.55;73.00
81379;BME280;70830;42.290;-71.354;2023-07-29T11:15:19;100497.94;;;26.14;70.94
81379;BME280;70830;42.290;-71.354;2023-07-29T11:17:47;100483.41;;;26.24;70.31
81379;BME280;70830;42.290;-71.354;2023-07-29T11:20:17;100480.56;;;26.33;70.07
81379;BME280;70830;42.290;-71.354;2023-07-29T11:22:44;100474.63;;;26.38;70.26
81379;BME280;70830;42.290;-71.354;2023-07-29T11:25:14;100471.09;;;26.37;69.88
81379;BME280;70830;42.290;-71.354;2023-07-29T11:27:41;100481.72;;;26.39;69.61
81379;BME280;70830;42.290;-71.354;2023-07-29T11:30:10;100476.31;;;26.39;69.23
81379;BME280;70830;42.290;-71.354;2023-07-29T11:32:37;100486.13;;;26.40;69.51
81379;BME280;70830;42.290;-71.354;2023-07-29T11:35:11;100491.00;;;26.36;69.32
81379;BME280;70830;42.290;-71.354;2023-07-29T11:37:39;100497.44;;;26.43;69.49
81379;BME280;70830;42.290;-71.354;2023-07-29T11:40:06;100493.56;;;26.38;69.00
81379;BME280;70830;42.290;-71.354;2023-07-29T11:42:33;100488.31;;;26.36;69.46
81379;BME280;70830;42.290;-71.354;2023-07-29T11:45:00;100496.59;;;26.43;69.52
81379;BME280;70830;42.290;-71.354;2023-07-29T11:47:26;100493.03;;;26.50;69.10
81379;BME280;70830;42.290;-71.354;2023-07-29T11:49:59;100487.28;;;26.61;68.74
81379;BME280;70830;42.290;-71.354;2023-07-29T11:52:30;100482.56;;;26.63;68.59
81379;BME280;70830;42.290;-71.354;2023-07-29T11:54:57;100479.00;;;26.63;68.52
81379;BME280;70830;42.290;-71.354;2023-07-29T11:57:24;100483.72;;;26.61;68.40
81379;BME280;70830;42.290;-71.354;2023-07-29T11:59:50;100478.84;;;26.64;69.04
81379;BME280;70830;42.290;-71.354;2023-07-29T12:02:17;100470.19;;;26.69;68.68
81379;BME280;70830;42.290;-71.354;2023-07-29T12:04:47;100469.56;;;26.75;68.59
81379;BME280;70830;42.290;-71.354;2023-07-29T12:07:14;100465.97;;;26.82;68.54
81379;BME280;70830;42.290;-71.354;2023-07-29T12:09:42;100457.34;;;26.87;68.07
81379;BME280;70830;42.290;-71.354;2023-07-29T12:12:08;100464.59;;;26.95;68.19
81379;BME280;70830;42.290;-71.354;2023-07-29T12:14:35;100461.91;;;26.95;67.56
81379;BME280;70830;42.290;-71.354;2023-07-29T12:17:02;100451.94;;;26.87;68.30
81379;BME280;70830;42.290;-71.354;2023-07-29T12:19:36;100446.03;;;26.83;68.18
81379;BME280;70830;42.290;-71.354;2023-07-29T12:22:05;100446.22;;;26.82;68.26
81379;BME280;70830;42.290;-71.354;2023-07-29T12:24:33;100450.25;;;26.78;68.12
81379;BME280;70830;42.290;-71.354;2023-07-29T12:26:59;100439.28;;;26.79;68.42
81379;BME280;70830;42.290;-71.354;2023-07-29T12:29:26;100434.34;;;26.83;68.25
81379;BME280;70830;42.290;-71.354;2023-07-29T12:31:59;100433.97;;;26.94;67.90
81379;BME280;70830;42.290;-71.354;2023-07-29T12:34:28;100424.47;;;27.06;67.88
81379;BME280;70830;42.290;-71.354;2023-07-29T12:36:55;100435.06;;;27.24;67.86
81379;BME280;70830;42.290;-71.354;2023-07-29T12:39:29;100428.41;;;27.34;66.76
81379;BME280;70830;42.290;-71.354;2023-07-29T12:41:57;100447.81;;;27.54;66.82
81379;BME280;70830;42.290;-71.354;2023-07-29T12:44:24;100434.53;;;27.67;66.34
81379;BME280;70830;42.290;-71.354;2023-07-29T12:46:51;100440.03;;;27.82;65.33
81379;BME280;70830;42.290;-71.354;2023-07-29T12:49:17;100439.22;;;27.96;65.78
81379;BME280;70830;42.290;-71.354;2023-07-29T12:51:43;100434.47;;;28.06;65.14
81379;BME280;70830;42.290;-71.354;2023-07-29T12:54:09;100430.88;;;28.28;64.73
81379;BME280;70830;42.290;-71.354;2023-07-29T12:56:35;100428.03;;;28.44;64.07
81379;BME280;70830;42.290;-71.354;2023-07-29T12:59:02;100438.94;;;28.59;63.06
81379;BME280;70830;42.290;-71.354;2023-07-29T13:01:29;100434.94;;;28.84;62.45